sensor_id;sensor_type;location;lat;lon;timestamp;P1;durP1;ratioP1;P2;durP2;ratioP2
24729;SDS011;12832;52.392;13.066;2023-04-06T00:00:53;1.10;;;1.00;;
24729;SDS011;12832;52.392;13.066;2023-04-06T00:03:19;0.90;;;0.90;;
24729;SDS011;12832;52.392;13.066;2023-04-06T00:05:46;0.90;;;0.90;;
24729;SDS011;12832;52.392;13.066;2023-04-06T00:08:13;1.42;;;0.93;;
24729;SDS011;12832;52.392;13.066;2023-04-06T00:10:41;1.00;;;0.90;;
24729;SDS011;12832;52.392;13.066;2023-04-06T00:13:08;1.08;;;0.98;;
24729;SDS011;12832;52.392;13.066;2023-04-06T00:15:41;0.80;;;0.80;;
24729;SDS011;12832;52.392;13.066;2023-04-06T00:18:14;1.00;;;0.90;;
24729;SDS011;12832;52.392;13.066;2023-04-06T00:20:40;0.77;;;0.77;;
24729;SDS011;12832;52.392;13.066;2023-04-06T00:23:07;1.00;;;0.90;;
24729;SDS011;12832;52.392;13.066;2023-04-06T00:25:33;1.10;;;1.00;;
24729;SDS011;12832;52.392;13.066;2023-04-06T00:27:59;0.80;;;0.77;;
24729;SDS011;12832;52.392;13.066;2023-04-06T00:30:25;0.95;;;0.85;;
24729;SDS011;12832;52.392;13.066;2023-04-06T00:32:52;1.27;;;1.02;;
24729;SDS011;12832;52.392;13.066;2023-04-06T00:35:19;0.65;;;0.65;;
24729;SDS011;12832;52.392;13.066;2023-04-06T00:38:00;1.17;;;1.08;;
24729;SDS011;12832;52.392;13.066;2023-04-06T00:40:26;0.70;;;0.70;;
24729;SDS011;12832;52.392;13.066;2023-04-06T00:42:58;0.90;;;0.90;;
24729;SDS011;12832;52.392;13.066;2023-04-06T00:45:25;0.90;;;0.80;;
24729;SDS011;12832;52.392;13.066;2023-04-06T00:47:52;0.88;;;0.88;;
24729;SDS011;12832;52.392;13.066;2023-04-06T00:50:19;0.85;;;0.80;;
24729;SDS011;12832;52.392;13.066;2023-04-06T00:52:48;1.08;;;0.98;;
24729;SDS011;12832;52.392;13.066;2023-04-06T00:55:14;0.80;;;0.80;;
24729;SDS011;12832;52.392;13.066;2023-04-06T00:57:40;0.82;;;0.80;;
24729;SDS011;12832;52.392;13.066;2023-04-06T01:00:07;0.88;;;0.77;;
24729;SDS011;12832;52.392;13.066;2023-04-06T01:02:36;0.60;;;0.60;;
24729;SDS011;12832;52.392;13.066;2023-04-06T01:05:06;1.05;;;0.95;;
24729;SDS011;12832;52.392;13.066;2023-04-06T01:07:38;0.70;;;0.70;;
24729;SDS011;12832;52.392;13.066;2023-04-06T01:10:08;1.13;;;0.82;;
24729;SDS011;12832;52.392;13.066;2023-04-06T01:12:36;1.10;;;1.00;;
24729;SDS011;12832;52.392;13.066;2023-04-06T01:15:10;0.65;;;0.65;;
24729;SDS011;12832;52.392;13.066;2023-04-06T01:17:37;0.90;;;0.90;;
24729;SDS011;12832;52.392;13.066;2023-04-06T01:20:05;0.70;;;0.70;;
24729;SDS011;12832;52.392;13.066;2023-04-06T01:22:44;0.70;;;0.70;;
24729;SDS011;12832;52.392;13.066;2023-04-06T01:25:13;0.80;;;0.80;;
24729;SDS011;12832;52.392;13.066;2023-04-06T01:27:40;0.98;;;0.93;;
24729;SDS011;12832;52.392;13.066;2023-04-06T01:30:31;0.82;;;0.80;;
24729;SDS011;12832;52.392;13.066;2023-04-06T01:32:58;1.00;;;1.00;;
24729;SDS011;12832;52.392;13.066;2023-04-06T01:35:25;0.70;;;0.70;;
24729;SDS011;12832;52.392;13.066;2023-04-06T01:37:53;0.98;;;0.88;;
24729;SDS011;12832;52.392;13.066;2023-04-06T01:40:29;0.82;;;0.80;;
24729;SDS011;12832;52.392;13.066;2023-04-06T01:42:56;0.90;;;0.85;;
24729;SDS011;12832;52.392;13.066;2023-04-06T01:45:25;0.95;;;0.90;;
24729;SDS011;12832;52.392;13.066;2023-04-06T01:47:51;1.05;;;0.88;;
24729;SDS011;12832;52.392;13.066;2023-04-06T01:50:21;1.10;;;1.00;;
24729;SDS011;12832;52.392;13.066;2023-04-06T01:52:47;0.88;;;0.88;;
24729;SDS011;12832;52.392;13.066;2023-04-06T01:55:16;0.88;;;0.80;;
24729;SDS011;12832;52.392;13.066;2023-04-06T01:57:44;0.70;;;0.70;;
24729;SDS011;12832;52.392;13.066;2023-04-06T02:00:10;1.02;;;0.90;;
24729;SDS011;12832;52.392;13.066;2023-04-06T02:02:44;1.10;;;0.93;;
24729;SDS011;12832;52.392;13.066;2023-04-06T02:05:13;0.70;;;0.70;;
24729;SDS011;12832;52.392;13.066;2023-04-06T02:07:39;0.63;;;0.63;;
24729;SDS011;12832;52.392;13.066;2023-04-06T02:10:10;1.15;;;0.90;;
24729;SDS011;12832;52.392;13.066;2023-04-06T02:12:41;0.85;;;0.85;;
24729;SDS011;12832;52.392;13.066;2023-04-06T02:15:07;0.90;;;0.80;;
24729;SDS011;12832;52.392;13.066;2023-04-06T02:17:33;0.70;;;0.70;;
24729;SDS011;12832;52.392;13.066;2023-04-06T02:19:59;1.05;;;0.95;;
24729;SDS011;12832;52.392;13.066;2023-04-06T02:22:26;0.85;;;0.85;;
24729;SDS011;12832;52.392;13.066;2023-04-06T02:24:55;1.27;;;0.68;;
24729;SDS011;12832;52.392;13.066;2023-04-06T02:27:24;0.80;;;0.80;;
24729;SDS011;12832;52.392;13.066;2023-04-06T02:29:53;0.70;;;0.70;;
24729;SDS011;12832;52.392;13.066;2023-04-06T02:32:23;0.50;;;0.50;;
24729;SDS011;12832;52.392;13.066;2023-04-06T02:34:50;0.93;;;0.90;;
24729;SDS011;12832;52.392;13.066;2023-04-06T02:37:30;0.80;;;0.80;;
24729;SDS011;12832;52.392;13.066;2023-04-06T02:39:57;0.80;;;0.80;;
24729;SDS011;12832;52.392;13.066;2023-04-06T02:42:30;0.95;;;0.80;;
24729;SDS011;12832;52.392;13.066;2023-04-06T02:44:57;0.77;;;0.70;;
24729;SDS011;12832;52.392;13.066;2023-04-06T02:47:23;0.80;;;0.80;;
24729;SDS011;12832;52.392;13.066;2023-04-06T02:49:55;1.77;;;0.68;;
24729;SDS011;12832;52.392;13.066;2023-04-06T02:52:24;0.73;;;0.60;;
24729;SDS011;12832;52.392;13.066;2023-04-06T02:55:05;0.60;;;0.60;;
24729;SDS011;12832;52.392;13.066;2023-04-06T02:57:33;0.70;;;0.70;;
24729;SDS011;12832;52.392;13.066;2023-04-06T03:00:01;0.73;;;0.70;;
24729;SDS011;12832;52.392;13.066;2023-04-06T03:02:30;0.60;;;0.60;;
24729;SDS011;12832;52.392;13.066;2023-04-06T03:05:01;0.85;;;0.82;;
24729;SDS011;12832;52.392;13.066;2023-04-06T03:07:32;0.85;;;0.70;;
24729;SDS011;12832;52.392;13.066;2023-04-06T03:10:01;0.63;;;0.63;;
24729;SDS011;12832;52.392;13.066;2023-04-06T03:12:29;0.60;;;0.60;;
24729;SDS011;12832;52.392;13.066;2023-04-06T03:15:00;0.68;;;0.68;;
24729;SDS011;12832;52.392;13.066;2023-04-06T03:17:26;0.70;;;0.70;;
24729;SDS011;12832;52.392;13.066;2023-04-06T03:19:54;0.60;;;0.60;;
24729;SDS011;12832;52.392;13.066;2023-04-06T03:22:22;0.75;;;0.70;;
24729;SDS011;12832;52.392;13.066;2023-04-06T03:24:48;0.70;;;0.70;;
24729;SDS011;12832;52.392;13.066;2023-04-06T03:27:14;0.70;;;0.70;;
24729;SDS011;12832;52.392;13.066;2023-04-06T03:29:41;0.90;;;0.63;;
24729;SDS011;12832;52.392;13.066;2023-04-06T03:32:07;0.50;;;0.50;;
24729;SDS011;12832;52.392;13.066;2023-04-06T03:34:36;0.50;;;0.50;;
24729;SDS011;12832;52.392;13.066;2023-04-06T03:37:03;0.70;;;0.70;;
24729;SDS011;12832;52.392;13.066;2023-04-06T03:39:37;0.60;;;0.60;;
24729;SDS011;12832;52.392;13.066;2023-04-06T03:42:10;0.52;;;0.52;;
24729;SDS011;12832;52.392;13.066;2023-04-06T03:44:36;0.68;;;0.68;;
24729;SDS011;12832;52.392;13.066;2023-04-06T03:47:02;0.50;;;0.50;;
24729;SDS011;12832;52.392;13.066;2023-04-06T03:49:29;0.52;;;0.52;;
24729;SDS011;12832;52.392;13.066;2023-04-06T03:51:58;0.70;;;0.70;;
24729;SDS011;12832;52.392;13.066;2023-04-06T03:54:27;0.65;;;0.65;;
24729;SDS011;12832;52.392;13.066;2023-04-06T03:56:54;0.52;;;0.52;;
24729;SDS011;12832;52.392;13.066;2023-04-06T03:59:20;0.75;;;0.70;;
24729;SDS011;12832;52.392;13.066;2023-04-06T04:01:50;0.63;;;0.63;;
24729;SDS011;12832;52.392;13.066;2023-04-06T04:04:17;0.60;;;0.60;;
24729;SDS011;12832;52.392;13.066;2023-04-06T04:06:48;0.63;;;0.63;;
24729;SDS011;12832;52.392;13.066;2023-04-06T04:09:14;0.60;;;0.60;;
24729;SDS011;12832;52.392;13.066;2023-04-06T04:11:42;0.43;;;0.43;;
24729;SDS011;12832;52.392;13.066;2023-04-06T04:14:13;0.57;;;0.52;;
24729;SDS011;12832;52.392;13.066;2023-04-06T04:16:40;0.70;;;0.70;;
24729;SDS011;12832;52.392;13.066;2023-04-06T04:19:09;0.65;;;0.65;;
24729;SDS011;12832;52.392;13.066;2023-04-06T04:21:46;0.70;;;0.70;;
24729;SDS011;12832;52.392;13.066;2023-04-06T04:24:13;0.70;;;0.70;;
24729;SDS011;12832;52.392;13.066;2023-04-06T04:26:40;0.60;;;0.60;;
24729;SDS011;12832;52.392;13.066;2023-04-06T04:29:06;0.52;;;0.52;;
24729;SDS011;12832;52.392;13.066;2023-04-06T04:31:39;0.50;;;0.50;;
24729;SDS011;12832;52.392;13.066;2023-04-06T04:34:08;0.55;;;0.55;;
24729;SDS011;12832;52.392;13.066;2023-04-06T04:36:42;0.50;;;0.50;;
24729;SDS011;12832;52.392;13.066;2023-04-06T04:39:08;0.50;;;0.50;;
24729;SDS011;12832;52.392;13.066;2023-04-06T04:41:34;0.60;;;0.60;;
24729;SDS011;12832;52.392;13.066;2023-04-06T04:44:02;0.60;;;0.60;;
24729;SDS011;12832;52.392;13.066;2023-04-06T04:46:32;0.60;;;0.60;;
24729;SDS011;12832;52.392;13.066;2023-04-06T04:49:00;0.40;;;0.40;;
24729;SDS011;12832;52.392;13.066;2023-04-06T04:51:26;0.65;;;0.55;;
24729;SDS011;12832;52.392;13.066;2023-04-06T04:53:53;0.60;;;0.60;;
24729;SDS011;12832;52.392;13.066;2023-04-06T04:56:19;0.70;;;0.70;;
24729;SDS011;12832;52.392;13.066;2023-04-06T04:58:49;0.47;;;0.47;;
24729;SDS011;12832;52.392;13.066;2023-04-06T05:01:18;0.70;;;0.70;;
24729;SDS011;12832;52.392;13.066;2023-04-06T05:03:52;0.77;;;0.57;;
24729;SDS011;12832;52.392;13.066;2023-04-06T05:06:19;0.43;;;0.43;;
24729;SDS011;12832;52.392;13.066;2023-04-06T05:11:59;0.73;;;0.70;;
24729;SDS011;12832;52.392;13.066;2023-04-06T05:14:42;0.82;;;0.70;;
24729;SDS011;12832;52.392;13.066;2023-04-06T05:17:09;0.60;;;0.60;;
24729;SDS011;12832;52.392;13.066;2023-04-06T05:19:42;0.52;;;0.52;;
24729;SDS011;12832;52.392;13.066;2023-04-06T05:22:09;0.70;;;0.70;;
24729;SDS011;12832;52.392;13.066;2023-04-06T05:24:38;0.82;;;0.70;;
24729;SDS011;12832;52.392;13.066;2023-04-06T05:27:06;0.50;;;0.50;;
24729;SDS011;12832;52.392;13.066;2023-04-06T05:29:33;0.77;;;0.70;;
24729;SDS011;12832;52.392;13.066;2023-04-06T05:32:01;0.80;;;0.80;;
24729;SDS011;12832;52.392;13.066;2023-04-06T05:34:29;0.70;;;0.70;;
24729;SDS011;12832;52.392;13.066;2023-04-06T05:36:55;0.93;;;0.80;;
24729;SDS011;12832;52.392;13.066;2023-04-06T05:39:21;0.60;;;0.60;;
24729;SDS011;12832;52.392;13.066;2023-04-06T05:41:48;1.33;;;0.85;;
24729;SDS011;12832;52.392;13.066;2023-04-06T05:44:16;0.75;;;0.75;;
24729;SDS011;12832;52.392;13.066;2023-04-06T05:46:45;1.38;;;1.10;;
24729;SDS011;12832;52.392;13.066;2023-04-06T05:49:12;1.40;;;1.30;;
24729;SDS011;12832;52.392;13.066;2023-04-06T05:51:40;2.35;;;1.10;;
24729;SDS011;12832;52.392;13.066;2023-04-06T05:54:10;3.95;;;1.30;;
24729;SDS011;12832;52.392;13.066;2023-04-06T05:56:39;1.83;;;1.50;;
24729;SDS011;12832;52.392;13.066;2023-04-06T05:59:06;1.55;;;1.15;;
24729;SDS011;12832;52.392;13.066;2023-04-06T06:01:33;1.88;;;1.48;;
24729;SDS011;12832;52.392;13.066;2023-04-06T06:04:00;1.38;;;1.20;;
24729;SDS011;12832;52.392;13.066;2023-04-06T06:06:27;1.83;;;1.48;;
24729;SDS011;12832;52.392;13.066;2023-04-06T06:08:54;3.05;;;1.58;;
24729;SDS011;12832;52.392;13.066;2023-04-06T06:11:30;3.60;;;1.60;;
24729;SDS011;12832;52.392;13.066;2023-04-06T06:14:01;4.10;;;1.75;;
24729;SDS011;12832;52.392;13.066;2023-04-06T06:16:33;2.65;;;1.40;;
24729;SDS011;12832;52.392;13.066;2023-04-06T06:19:02;1.65;;;1.42;;
24729;SDS011;12832;52.392;13.066;2023-04-06T06:21:42;1.67;;;1.52;;
24729;SDS011;12832;52.392;13.066;2023-04-06T06:24:13;1.50;;;1.40;;
24729;SDS011;12832;52.392;13.066;2023-04-06T06:26:49;2.88;;;1.52;;
24729;SDS011;12832;52.392;13.066;2023-04-06T06:29:18;3.22;;;1.90;;
24729;SDS011;12832;52.392;13.066;2023-04-06T06:31:54;2.97;;;1.83;;
24729;SDS011;12832;52.392;13.066;2023-04-06T06:34:22;2.97;;;2.00;;
24729;SDS011;12832;52.392;13.066;2023-04-06T06:36:54;1.55;;;1.30;;
24729;SDS011;12832;52.392;13.066;2023-04-06T06:39:26;2.33;;;1.77;;
24729;SDS011;12832;52.392;13.066;2023-04-06T06:41:55;2.88;;;2.20;;
24729;SDS011;12832;52.392;13.066;2023-04-06T06:44:23;4.20;;;2.70;;
24729;SDS011;12832;52.392;13.066;2023-04-06T06:46:54;2.13;;;1.90;;
24729;SDS011;12832;52.392;13.066;2023-04-06T06:49:25;3.17;;;1.80;;
24729;SDS011;12832;52.392;13.066;2023-04-06T06:51:55;1.45;;;1.35;;
24729;SDS011;12832;52.392;13.066;2023-04-06T06:54:22;2.15;;;1.92;;
24729;SDS011;12832;52.392;13.066;2023-04-06T06:56:51;2.10;;;1.90;;
24729;SDS011;12832;52.392;13.066;2023-04-06T06:59:17;2.70;;;1.75;;
24729;SDS011;12832;52.392;13.066;2023-04-06T07:01:43;2.10;;;1.90;;
24729;SDS011;12832;52.392;13.066;2023-04-06T07:04:09;4.30;;;2.13;;
24729;SDS011;12832;52.392;13.066;2023-04-06T07:06:36;2.60;;;1.90;;
24729;SDS011;12832;52.392;13.066;2023-04-06T07:09:05;2.45;;;1.80;;
24729;SDS011;12832;52.392;13.066;2023-04-06T07:11:31;2.30;;;1.70;;
24729;SDS011;12832;52.392;13.066;2023-04-06T07:13:58;2.40;;;2.03;;
24729;SDS011;12832;52.392;13.066;2023-04-06T07:16:26;2.50;;;1.70;;
24729;SDS011;12832;52.392;13.066;2023-04-06T07:18:55;2.58;;;1.52;;
24729;SDS011;12832;52.392;13.066;2023-04-06T07:21:21;1.40;;;1.30;;
24729;SDS011;12832;52.392;13.066;2023-04-06T07:23:48;2.25;;;1.50;;
24729;SDS011;12832;52.392;13.066;2023-04-06T07:26:18;2.00;;;1.38;;
24729;SDS011;12832;52.392;13.066;2023-04-06T07:28:58;2.08;;;1.48;;
24729;SDS011;12832;52.392;13.066;2023-04-06T07:31:24;3.33;;;1.60;;
24729;SDS011;12832;52.392;13.066;2023-04-06T07:33:50;1.80;;;1.20;;
24729;SDS011;12832;52.392;13.066;2023-04-06T07:36:17;1.40;;;1.30;;
24729;SDS011;12832;52.392;13.066;2023-04-06T07:38:47;1.73;;;1.20;;
24729;SDS011;12832;52.392;13.066;2023-04-06T07:41:14;1.52;;;1.27;;
24729;SDS011;12832;52.392;13.066;2023-04-06T07:43:40;1.48;;;1.38;;
24729;SDS011;12832;52.392;13.066;2023-04-06T07:46:06;2.08;;;1.70;;
24729;SDS011;12832;52.392;13.066;2023-04-06T07:48:32;1.90;;;1.30;;
24729;SDS011;12832;52.392;13.066;2023-04-06T07:51:02;2.25;;;1.63;;
24729;SDS011;12832;52.392;13.066;2023-04-06T07:53:29;1.95;;;1.52;;
24729;SDS011;12832;52.392;13.066;2023-04-06T07:55:57;4.45;;;1.48;;
24729;SDS011;12832;52.392;13.066;2023-04-06T07:58:41;1.40;;;1.30;;
24729;SDS011;12832;52.392;13.066;2023-04-06T08:01:12;1.50;;;1.27;;
24729;SDS011;12832;52.392;13.066;2023-04-06T08:03:42;2.20;;;1.20;;
24729;SDS011;12832;52.392;13.066;2023-04-06T08:06:08;1.83;;;1.35;;
24729;SDS011;12832;52.392;13.066;2023-04-06T08:08:43;1.35;;;1.25;;
24729;SDS011;12832;52.392;13.066;2023-04-06T08:11:09;1.90;;;1.30;;
24729;SDS011;12832;52.392;13.066;2023-04-06T08:13:37;2.13;;;1.30;;
24729;SDS011;12832;52.392;13.066;2023-04-06T08:16:10;3.47;;;1.50;;
24729;SDS011;12832;52.392;13.066;2023-04-06T08:18:36;1.80;;;1.23;;
24729;SDS011;12832;52.392;13.066;2023-04-06T08:21:06;2.20;;;1.52;;
24729;SDS011;12832;52.392;13.066;2023-04-06T08:23:35;1.70;;;1.40;;
24729;SDS011;12832;52.392;13.066;2023-04-06T08:28:53;1.83;;;1.30;;
24729;SDS011;12832;52.392;13.066;2023-04-06T08:31:19;1.58;;;1.40;;
24729;SDS011;12832;52.392;13.066;2023-04-06T08:33:46;1.27;;;1.05;;
24729;SDS011;12832;52.392;13.066;2023-04-06T08:36:17;2.03;;;1.33;;
24729;SDS011;12832;52.392;13.066;2023-04-06T08:38:52;1.70;;;1.05;;
24729;SDS011;12832;52.392;13.066;2023-04-06T08:41:21;1.33;;;1.02;;
24729;SDS011;12832;52.392;13.066;2023-04-06T08:43:59;1.38;;;0.93;;
24729;SDS011;12832;52.392;13.066;2023-04-06T08:46:28;2.95;;;1.10;;
24729;SDS011;12832;52.392;13.066;2023-04-06T08:48:59;1.92;;;1.20;;
24729;SDS011;12832;52.392;13.066;2023-04-06T08:51:27;1.42;;;1.27;;
24729;SDS011;12832;52.392;13.066;2023-04-06T08:53:59;1.10;;;1.00;;
24729;SDS011;12832;52.392;13.066;2023-04-06T08:56:29;4.07;;;1.30;;
24729;SDS011;12832;52.392;13.066;2023-04-06T08:59:06;1.02;;;0.85;;
24729;SDS011;12832;52.392;13.066;2023-04-06T09:01:33;1.33;;;1.10;;
24729;SDS011;12832;52.392;13.066;2023-04-06T09:04:09;3.45;;;0.93;;
24729;SDS011;12832;52.392;13.066;2023-04-06T09:06:43;0.85;;;0.75;;
24729;SDS011;12832;52.392;13.066;2023-04-06T09:09:12;1.13;;;0.80;;
24729;SDS011;12832;52.392;13.066;2023-04-06T09:11:49;1.15;;;0.88;;
24729;SDS011;12832;52.392;13.066;2023-04-06T09:14:39;2.25;;;1.30;;
24729;SDS011;12832;52.392;13.066;2023-04-06T09:17:19;1.10;;;0.80;;
24729;SDS011;12832;52.392;13.066;2023-04-06T09:20:07;1.60;;;0.80;;
24729;SDS011;12832;52.392;13.066;2023-04-06T09:22:39;1.80;;;1.00;;
24729;SDS011;12832;52.392;13.066;2023-04-06T09:25:24;1.77;;;0.70;;
24729;SDS011;12832;52.392;13.066;2023-04-06T09:27:58;1.10;;;1.00;;
24729;SDS011;12832;52.392;13.066;2023-04-06T09:30:26;1.55;;;0.88;;
24729;SDS011;12832;52.392;13.066;2023-04-06T09:32:56;1.00;;;0.73;;
24729;SDS011;12832;52.392;13.066;2023-04-06T09:35:23;2.15;;;0.85;;
24729;SDS011;12832;52.392;13.066;2023-04-06T09:37:55;1.15;;;1.05;;
24729;SDS011;12832;52.392;13.066;2023-04-06T09:40:22;2.08;;;0.88;;
24729;SDS011;12832;52.392;13.066;2023-04-06T09:42:57;1.75;;;1.00;;
24729;SDS011;12832;52.392;13.066;2023-04-06T09:45:25;0.95;;;0.80;;
24729;SDS011;12832;52.392;13.066;2023-04-06T09:47:54;2.53;;;1.13;;
24729;SDS011;12832;52.392;13.066;2023-04-06T09:50:22;1.33;;;1.00;;
24729;SDS011;12832;52.392;13.066;2023-04-06T09:52:53;0.85;;;0.82;;
24729;SDS011;12832;52.392;13.066;2023-04-06T09:55:26;1.58;;;1.00;;
24729;SDS011;12832;52.392;13.066;2023-04-06T09:58:06;1.17;;;0.80;;
24729;SDS011;12832;52.392;13.066;2023-04-06T10:01:03;1.23;;;0.73;;
24729;SDS011;12832;52.392;13.066;2023-04-06T10:03:43;1.00;;;0.80;;
24729;SDS011;12832;52.392;13.066;2023-04-06T10:06:22;0.85;;;0.80;;
24729;SDS011;12832;52.392;13.066;2023-04-06T10:08:52;1.27;;;0.90;;
24729;SDS011;12832;52.392;13.066;2023-04-06T10:11:24;1.08;;;0.70;;
24729;SDS011;12832;52.392;13.066;2023-04-06T10:13:50;1.38;;;0.73;;
24729;SDS011;12832;52.392;13.066;2023-04-06T10:16:16;0.80;;;0.80;;
24729;SDS011;12832;52.392;13.066;2023-04-06T10:18:50;1.25;;;0.80;;
24729;SDS011;12832;52.392;13.066;2023-04-06T10:21:43;1.00;;;0.90;;
24729;SDS011;12832;52.392;13.066;2023-04-06T10:24:26;0.75;;;0.60;;
24729;SDS011;12832;52.392;13.066;2023-04-06T10:27:01;0.60;;;0.60;;
24729;SDS011;12832;52.392;13.066;2023-04-06T10:30:00;1.35;;;0.80;;
24729;SDS011;12832;52.392;13.066;2023-04-06T10:32:32;0.95;;;0.80;;
24729;SDS011;12832;52.392;13.066;2023-04-06T10:35:11;0.70;;;0.70;;
24729;SDS011;12832;52.392;13.066;2023-04-06T10:40:42;0.82;;;0.80;;
24729;SDS011;12832;52.392;13.066;2023-04-06T10:43:20;0.70;;;0.70;;
24729;SDS011;12832;52.392;13.066;2023-04-06T10:45:57;0.95;;;0.60;;
24729;SDS011;12832;52.392;13.066;2023-04-06T10:51:18;1.23;;;0.50;;
24729;SDS011;12832;52.392;13.066;2023-04-06T10:54:13;1.42;;;0.70;;
24729;SDS011;12832;52.392;13.066;2023-04-06T10:56:41;0.70;;;0.70;;
24729;SDS011;12832;52.392;13.066;2023-04-06T10:59:07;0.93;;;0.70;;
24729;SDS011;12832;52.392;13.066;2023-04-06T11:01:38;1.30;;;0.60;;
24729;SDS011;12832;52.392;13.066;2023-04-06T11:04:15;1.08;;;0.70;;
24729;SDS011;12832;52.392;13.066;2023-04-06T11:06:49;1.08;;;0.82;;
24729;SDS011;12832;52.392;13.066;2023-04-06T11:09:26;1.65;;;1.00;;
24729;SDS011;12832;52.392;13.066;2023-04-06T11:11:54;2.28;;;0.70;;
24729;SDS011;12832;52.392;13.066;2023-04-06T11:14:23;1.40;;;0.80;;
24729;SDS011;12832;52.392;13.066;2023-04-06T11:16:49;0.90;;;0.80;;
24729;SDS011;12832;52.392;13.066;2023-04-06T11:19:19;1.00;;;0.80;;
24729;SDS011;12832;52.392;13.066;2023-04-06T11:21:47;2.10;;;0.80;;
24729;SDS011;12832;52.392;13.066;2023-04-06T11:24:21;1.00;;;0.75;;
24729;SDS011;12832;52.392;13.066;2023-04-06T11:26:58;0.85;;;0.73;;
24729;SDS011;12832;52.392;13.066;2023-04-06T11:29:28;1.23;;;0.70;;
24729;SDS011;12832;52.392;13.066;2023-04-06T11:32:06;1.40;;;0.80;;
24729;SDS011;12832;52.392;13.066;2023-04-06T11:34:34;1.23;;;0.80;;
24729;SDS011;12832;52.392;13.066;2023-04-06T11:37:07;0.68;;;0.68;;
24729;SDS011;12832;52.392;13.066;2023-04-06T11:39:39;1.15;;;0.82;;
24729;SDS011;12832;52.392;13.066;2023-04-06T11:42:25;1.10;;;0.90;;
24729;SDS011;12832;52.392;13.066;2023-04-06T11:44:57;1.80;;;0.80;;
24729;SDS011;12832;52.392;13.066;2023-04-06T11:47:28;1.05;;;0.70;;
24729;SDS011;12832;52.392;13.066;2023-04-06T11:49:55;1.80;;;0.85;;
24729;SDS011;12832;52.392;13.066;2023-04-06T11:52:41;1.95;;;1.00;;
24729;SDS011;12832;52.392;13.066;2023-04-06T11:58:00;2.63;;;0.98;;
24729;SDS011;12832;52.392;13.066;2023-04-06T12:00:26;0.85;;;0.63;;
24729;SDS011;12832;52.392;13.066;2023-04-06T12:03:02;0.40;;;0.40;;
24729;SDS011;12832;52.392;13.066;2023-04-06T12:05:29;0.65;;;0.65;;
24729;SDS011;12832;52.392;13.066;2023-04-06T12:07:55;0.80;;;0.70;;
24729;SDS011;12832;52.392;13.066;2023-04-06T12:10:28;1.67;;;0.88;;
24729;SDS011;12832;52.392;13.066;2023-04-06T12:12:54;0.70;;;0.70;;
24729;SDS011;12832;52.392;13.066;2023-04-06T12:15:21;1.13;;;0.82;;
24729;SDS011;12832;52.392;13.066;2023-04-06T12:17:48;1.42;;;0.80;;
24729;SDS011;12832;52.392;13.066;2023-04-06T12:20:17;0.63;;;0.63;;
24729;SDS011;12832;52.392;13.066;2023-04-06T12:22:52;1.42;;;1.00;;
24729;SDS011;12832;52.392;13.066;2023-04-06T12:25:24;1.27;;;0.75;;
24729;SDS011;12832;52.392;13.066;2023-04-06T12:27:59;1.90;;;0.70;;
24729;SDS011;12832;52.392;13.066;2023-04-06T12:30:27;1.20;;;0.80;;
24729;SDS011;12832;52.392;13.066;2023-04-06T12:32:59;0.75;;;0.70;;
24729;SDS011;12832;52.392;13.066;2023-04-06T12:35:37;1.05;;;0.82;;
24729;SDS011;12832;52.392;13.066;2023-04-06T12:38:07;1.17;;;0.80;;
24729;SDS011;12832;52.392;13.066;2023-04-06T12:40:37;0.70;;;0.70;;
24729;SDS011;12832;52.392;13.066;2023-04-06T12:43:05;1.55;;;0.70;;
24729;SDS011;12832;52.392;13.066;2023-04-06T12:45:41;1.90;;;0.90;;
24729;SDS011;12832;52.392;13.066;2023-04-06T12:48:08;0.93;;;0.70;;
24729;SDS011;12832;52.392;13.066;2023-04-06T12:50:40;0.70;;;0.60;;
24729;SDS011;12832;52.392;13.066;2023-04-06T12:53:10;1.08;;;0.90;;
24729;SDS011;12832;52.392;13.066;2023-04-06T12:55:36;0.82;;;0.70;;
24729;SDS011;12832;52.392;13.066;2023-04-06T12:58:05;0.90;;;0.80;;
24729;SDS011;12832;52.392;13.066;2023-04-06T13:00:34;1.48;;;0.90;;
24729;SDS011;12832;52.392;13.066;2023-04-06T13:03:01;1.58;;;0.82;;
24729;SDS011;12832;52.392;13.066;2023-04-06T13:05:27;1.33;;;0.70;;
24729;SDS011;12832;52.392;13.066;2023-04-06T13:07:55;0.90;;;0.75;;
24729;SDS011;12832;52.392;13.066;2023-04-06T13:10:25;0.82;;;0.80;;
24729;SDS011;12832;52.392;13.066;2023-04-06T13:12:53;1.17;;;0.80;;
24729;SDS011;12832;52.392;13.066;2023-04-06T13:15:20;1.15;;;0.75;;
24729;SDS011;12832;52.392;13.066;2023-04-06T13:17:46;0.93;;;0.70;;
24729;SDS011;12832;52.392;13.066;2023-04-06T13:20:12;0.95;;;0.77;;
24729;SDS011;12832;52.392;13.066;2023-04-06T13:22:49;0.90;;;0.80;;
24729;SDS011;12832;52.392;13.066;2023-04-06T13:25:15;0.85;;;0.77;;
24729;SDS011;12832;52.392;13.066;2023-04-06T13:27:41;0.80;;;0.63;;
24729;SDS011;12832;52.392;13.066;2023-04-06T13:30:13;0.90;;;0.70;;
24729;SDS011;12832;52.392;13.066;2023-04-06T13:32:42;0.85;;;0.70;;
24729;SDS011;12832;52.392;13.066;2023-04-06T13:35:09;1.05;;;0.70;;
24729;SDS011;12832;52.392;13.066;2023-04-06T13:37:37;1.63;;;1.00;;
24729;SDS011;12832;52.392;13.066;2023-04-06T13:40:03;1.45;;;0.80;;
24729;SDS011;12832;52.392;13.066;2023-04-06T13:42:34;1.10;;;1.00;;
24729;SDS011;12832;52.392;13.066;2023-04-06T13:45:15;1.42;;;0.80;;
24729;SDS011;12832;52.392;13.066;2023-04-06T13:47:41;1.25;;;0.90;;
24729;SDS011;12832;52.392;13.066;2023-04-06T13:50:07;1.40;;;1.10;;
24729;SDS011;12832;52.392;13.066;2023-04-06T13:52:38;1.70;;;1.10;;
24729;SDS011;12832;52.392;13.066;2023-04-06T13:55:04;1.58;;;0.80;;
24729;SDS011;12832;52.392;13.066;2023-04-06T13:57:34;0.98;;;0.80;;
24729;SDS011;12832;52.392;13.066;2023-04-06T14:00:04;1.70;;;1.20;;
24729;SDS011;12832;52.392;13.066;2023-04-06T14:02:33;0.77;;;0.73;;
24729;SDS011;12832;52.392;13.066;2023-04-06T14:04:59;1.23;;;0.90;;
24729;SDS011;12832;52.392;13.066;2023-04-06T14:07:27;1.73;;;0.93;;
24729;SDS011;12832;52.392;13.066;2023-04-06T14:09:58;2.58;;;1.05;;
24729;SDS011;12832;52.392;13.066;2023-04-06T14:12:28;1.83;;;1.02;;
24729;SDS011;12832;52.392;13.066;2023-04-06T14:15:14;1.10;;;0.93;;
24729;SDS011;12832;52.392;13.066;2023-04-06T14:17:40;1.67;;;1.13;;
24729;SDS011;12832;52.392;13.066;2023-04-06T14:20:07;1.33;;;1.23;;
24729;SDS011;12832;52.392;13.066;2023-04-06T14:22:34;1.33;;;0.82;;
24729;SDS011;12832;52.392;13.066;2023-04-06T14:25:02;1.23;;;0.90;;
24729;SDS011;12832;52.392;13.066;2023-04-06T14:27:30;1.60;;;0.93;;
24729;SDS011;12832;52.392;13.066;2023-04-06T14:29:57;1.38;;;1.00;;
24729;SDS011;12832;52.392;13.066;2023-04-06T14:32:24;1.20;;;1.10;;
24729;SDS011;12832;52.392;13.066;2023-04-06T14:34:52;1.67;;;0.80;;
24729;SDS011;12832;52.392;13.066;2023-04-06T14:37:19;0.68;;;0.60;;
24729;SDS011;12832;52.392;13.066;2023-04-06T14:39:47;1.70;;;1.20;;
24729;SDS011;12832;52.392;13.066;2023-04-06T14:42:16;0.80;;;0.75;;
24729;SDS011;12832;52.392;13.066;2023-04-06T14:44:43;0.98;;;0.88;;
24729;SDS011;12832;52.392;13.066;2023-04-06T14:47:14;1.17;;;0.90;;
24729;SDS011;12832;52.392;13.066;2023-04-06T14:49:50;1.00;;;0.90;;
24729;SDS011;12832;52.392;13.066;2023-04-06T14:52:43;1.10;;;1.00;;
24729;SDS011;12832;52.392;13.066;2023-04-06T14:55:13;1.35;;;0.80;;
24729;SDS011;12832;52.392;13.066;2023-04-06T14:57:39;1.20;;;1.10;;
24729;SDS011;12832;52.392;13.066;2023-04-06T15:00:06;0.82;;;0.73;;
24729;SDS011;12832;52.392;13.066;2023-04-06T15:02:35;1.63;;;1.10;;
24729;SDS011;12832;52.392;13.066;2023-04-06T15:05:01;0.70;;;0.70;;